Time;durP1;ratioP1;P1;durP2;ratioP2;P2;SDS_P1;SDS_P2;PMS_P1;PMS_P2;Temp;Humidity;BMP_temperature;BMP_pressure;BME280_temperature;BME280_humidity;BME280_pressure;Samples;Min_cycle;Max_cycle;Signal;HPM_P1;HPM_P2
2023/04/01 00:02:17;;;;;;;5.95;2.33;;;8.90;99.90;;;;;;12467973;28;20038;-37
2023/04/01 00:08:20;;;;;;;7.03;2.20;;;8.90;99.90;;;;;;12467391;28;20088;-36
2023/04/01 00:14:21;;;;;;;4.55;2.15;;;8.90;99.90;;;;;;12468499;28;20510;-36
2023/04/01 00:20:25;;;;;;;4.40;1.85;;;8.80;99.90;;;;;;12483850;28;20132;-37
2023/04/01 00:26:27;;;;;;;5.63;2.30;;;8.80;99.90;;;;;;12483116;28;20064;-36
2023/04/01 00:32:30;;;;;;;6.30;1.80;;;8.90;99.90;;;;;;12457897;28;20057;-36
2023/04/01 00:38:32;;;;;;;3.70;1.50;;;8.80;99.90;;;;;;12460049;28;20132;-35
2023/04/01 00:44:34;;;;;;;7.03;1.65;;;8.80;99.90;;;;;;12459536;28;20045;-36
2023/04/01 00:50:38;;;;;;;5.97;1.95;;;8.90;99.90;;;;;;12475922;28;20042;-36
2023/04/01 00:56:48;;;;;;;5.57;1.30;;;8.90;99.90;;;;;;12464483;28;20112;-36
2023/04/01 01:02:51;;;;;;;6.78;1.35;;;8.80;99.90;;;;;;12469488;28;20045;-37
2023/04/01 01:09:23;;;;;;;3.38;1.02;;;8.80;99.90;;;;;;12473076;28;20046;-36
2023/04/01 01:15:53;;;;;;;4.15;0.98;;;8.80;99.90;;;;;;12463432;28;20041;-36
2023/04/01 01:22:21;;;;;;;7.28;1.30;;;8.80;99.90;;;;;;12455023;28;20045;-36
2023/04/01 01:28:53;;;;;;;1.83;0.77;;;8.80;99.90;;;;;;12464731;28;20049;-37
2023/04/01 01:34:59;;;;;;;5.22;1.40;;;8.80;99.90;;;;;;12463057;28;20455;-37
2023/04/01 01:41:03;;;;;;;3.33;1.20;;;8.70;99.90;;;;;;12448476;28;20101;-36
2023/04/01 01:47:05;;;;;;;3.80;1.30;;;8.70;99.90;;;;;;12461098;28;20413;-36
2023/04/01 01:53:10;;;;;;;1.48;0.63;;;8.60;99.90;;;;;;12462590;28;20133;-37
2023/04/01 01:59:15;;;;;;;4.43;0.85;;;8.70;99.90;;;;;;12463735;28;20509;-36
2023/04/01 02:05:23;;;;;;;3.00;0.75;;;8.70;99.90;;;;;;12456921;28;20085;-36
2023/04/01 02:11:45;;;;;;;3.80;0.60;;;8.60;99.90;;;;;;12458806;28;20058;-36
2023/04/01 02:17:49;;;;;;;2.67;0.70;;;8.70;99.90;;;;;;12457107;28;20053;-37
2023/04/01 02:23:53;;;;;;;1.48;0.52;;;8.60;99.90;;;;;;12458433;28;20778;-36
2023/04/01 02:29:55;;;;;;;;;;;8.60;99.90;;;;;;12453256;28;20050;-36
2023/04/01 02:35:58;;;;;;;1.98;0.60;;;8.60;99.90;;;;;;12456841;28;19980;-37
2023/04/01 02:42:00;;;;;;;2.33;0.57;;;8.60;99.90;;;;;;12488490;28;20054;-36
2023/04/01 02:48:02;;;;;;;2.05;0.73;;;8.60;99.90;;;;;;12500485;28;20064;-37
2023/04/01 02:54:04;;;;;;;1.83;0.40;;;8.60;99.90;;;;;;12475691;28;20046;-37
2023/04/01 03:00:10;;;;;;;1.48;0.35;;;8.60;99.90;;;;;;12474150;28;20041;-36
2023/04/01 03:06:14;;;;;;;4.75;0.80;;;8.60;99.90;;;;;;12452143;28;20072;-37
2023/04/01 03:12:17;;;;;;;3.83;0.60;;;8.50;99.90;;;;;;12472970;28;20140;-36
2023/04/01 03:18:19;;;;;;;3.03;0.60;;;8.50;99.90;;;;;;12470216;28;20622;-37
2023/04/01 03:24:21;;;;;;;1.05;0.40;;;8.50;99.90;;;;;;12463543;28;20940;-36
2023/04/01 03:30:23;;;;;;;1.88;0.65;;;8.50;99.90;;;;;;12477210;28;20056;-36
2023/04/01 03:36:25;;;;;;;3.35;0.47;;;8.50;99.90;;;;;;12438819;28;20053;-36
2023/04/01 03:42:27;;;;;;;4.15;0.73;;;8.50;99.90;;;;;;12452817;28;20623;-36
2023/04/01 03:48:29;;;;;;;2.38;0.40;;;8.50;99.90;;;;;;12452582;28;20058;-36
2023/04/01 03:54:31;;;;;;;3.20;0.68;;;8.40;99.90;;;;;;12469521;28;20058;-36
2023/04/01 04:00:33;;;;;;;2.00;0.45;;;8.50;99.90;;;;;;12463743;28;20052;-37
2023/04/01 04:06:35;;;;;;;1.33;0.30;;;8.50;99.90;;;;;;12448050;28;20627;-36
2023/04/01 04:12:37;;;;;;;3.60;0.50;;;8.50;99.90;;;;;;12455685;28;20091;-36
2023/04/01 04:18:39;;;;;;;2.78;0.50;;;8.50;99.90;;;;;;12476588;28;20049;-36
2023/04/01 04:24:41;;;;;;;3.28;0.45;;;8.50;99.90;;;;;;12460797;28;20064;-37
2023/04/01 04:30:43;;;;;;;1.83;0.47;;;8.50;99.90;;;;;;12452577;28;20080;-36
2023/04/01 04:36:45;;;;;;;2.80;0.43;;;8.40;99.90;;;;;;12459223;28;20045;-37
2023/04/01 04:42:47;;;;;;;1.58;0.38;;;8.40;99.90;;;;;;12454673;28;20057;-37
2023/04/01 04:48:49;;;;;;;1.05;0.30;;;8.50;99.90;;;;;;12444857;28;20058;-37
2023/04/01 04:54:51;;;;;;;2.65;0.43;;;8.40;99.90;;;;;;12458452;28;20168;-36
2023/04/01 05:00:53;;;;;;;1.85;0.43;;;8.40;99.90;;;;;;12449645;28;20084;-36
2023/04/01 05:06:55;;;;;;;2.15;0.40;;;8.40;99.90;;;;;;12444679;28;20080;-37
2023/04/01 05:12:57;;;;;;;2.40;0.40;;;8.50;99.90;;;;;;12455932;28;20148;-36
2023/04/01 05:18:59;;;;;;;1.98;0.40;;;8.50;99.90;;;;;;12454721;28;20050;-37
2023/04/01 05:25:01;;;;;;;0.73;0.30;;;8.50;99.90;;;;;;12451177;28;20053;-36
2023/04/01 05:31:06;;;;;;;1.55;0.40;;;8.50;99.90;;;;;;12454300;28;20530;-36
2023/04/01 05:37:09;;;;;;;1.58;0.43;;;8.50;99.90;;;;;;12439911;28;20478;-36
2023/04/01 05:43:11;;;;;;;0.20;0.20;;;8.50;99.90;;;;;;12457036;28;20042;-35
2023/04/01 05:49:13;;;;;;;1.20;0.45;;;8.50;99.90;;;;;;12448023;28;20119;-36
2023/04/01 05:55:15;;;;;;;2.08;0.32;;;8.40;99.90;;;;;;12457909;28;20484;-35
2023/04/01 06:01:18;;;;;;;3.08;0.40;;;8.40;99.90;;;;;;12466384;28;20042;-36
2023/04/01 06:07:20;;;;;;;1.52;0.22;;;8.40;99.90;;;;;;12453832;28;20053;-35
2023/04/01 06:14:00;;;;;;;0.47;0.30;;;8.40;99.90;;;;;;12467548;28;20053;-35
2023/04/01 06:20:12;;;;;;;0.55;0.40;;;8.40;99.90;;;;;;12472536;28;20057;-36
2023/04/01 06:26:33;;;;;;;0.85;0.50;;;8.40;99.90;;;;;;12451029;28;20058;-36
2023/04/01 06:33:09;;;;;;;1.85;0.50;;;8.40;99.90;;;;;;12455134;28;20057;-35
2023/04/01 06:39:40;;;;;;;2.10;0.47;;;8.40;99.90;;;;;;12455832;28;20042;-36
2023/04/01 06:45:48;;;;;;;1.33;0.55;;;8.40;99.90;;;;;;12466403;28;20041;-36
2023/04/01 06:52:15;;;;;;;1.00;0.30;;;8.50;99.90;;;;;;12465792;28;20060;-36
2023/04/01 06:58:27;;;;;;;2.35;0.30;;;8.60;99.90;;;;;;12450058;28;20136;-36
2023/04/01 07:04:38;;;;;;;1.98;0.40;;;8.70;99.90;;;;;;12461233;28;20442;-36
2023/04/01 07:10:50;;;;;;;3.22;0.40;;;8.80;99.90;;;;;;12462406;28;20683;-36
2023/04/01 07:16:56;;;;;;;1.58;0.30;;;8.90;99.90;;;;;;12470889;28;20045;-36
2023/04/01 07:23:05;;;;;;;1.02;0.30;;;9.00;99.90;;;;;;12449710;28;20532;-37
2023/04/01 07:29:13;;;;;;;1.33;0.30;;;9.10;99.90;;;;;;12460939;28;20495;-37
2023/04/01 07:35:31;;;;;;;0.70;0.32;;;9.20;99.90;;;;;;12455234;28;20494;-36
2023/04/01 07:41:45;;;;;;;0.52;0.30;;;9.40;99.90;;;;;;12444152;28;20050;-36
2023/04/01 07:48:25;;;;;;;1.27;0.43;;;9.30;99.90;;;;;;12447205;28;20051;-36
2023/04/01 07:55:09;;;;;;;0.75;0.30;;;9.40;99.90;;;;;;12470648;28;20312;-37
2023/04/01 08:01:36;;;;;;;1.07;0.40;;;9.40;99.90;;;;;;12464192;28;20042;-37
2023/04/01 08:08:06;;;;;;;0.70;0.47;;;9.20;99.90;;;;;;12443585;28;20088;-37
2023/04/01 08:14:45;;;;;;;2.72;0.40;;;9.10;99.90;;;;;;12489875;28;20041;-37
2023/04/01 08:21:00;;;;;;;2.63;0.95;;;9.10;99.90;;;;;;12501285;28;20436;-37
2023/04/01 08:27:12;;;;;;;1.05;0.40;;;9.00;99.90;;;;;;12510930;28;20081;-37
2023/04/01 08:33:26;;;;;;;0.65;0.32;;;9.00;99.90;;;;;;12483137;28;20437;-37
2023/04/01 08:39:30;;;;;;;0.65;0.30;;;9.00;99.90;;;;;;12496003;28;20095;-37
2023/04/01 08:45:44;;;;;;;0.70;0.35;;;8.90;99.90;;;;;;12502996;28;20498;-37
2023/04/01 08:51:49;;;;;;;0.70;0.40;;;9.00;99.90;;;;;;12509705;28;20053;-37
2023/04/01 08:57:54;;;;;;;2.38;0.75;;;9.10;99.90;;;;;;12522806;28;20047;-37
2023/04/01 09:04:21;;;;;;;2.20;0.63;;;9.20;99.90;;;;;;12514093;28;20497;-37
2023/04/01 09:10:54;;;;;;;2.90;0.60;;;9.30;99.90;;;;;;12510623;28;20049;-37
2023/04/01 09:17:21;;;;;;;1.38;0.90;;;9.50;99.90;;;;;;12501185;28;20049;-36
2023/04/01 09:23:42;;;;;;;3.25;0.90;;;9.50;99.90;;;;;;12487479;28;20366;-37
2023/04/01 09:30:02;;;;;;;1.65;0.90;;;9.60;99.90;;;;;;12502259;28;20056;-37
2023/04/01 09:36:32;;;;;;;2.55;0.80;;;9.60;99.90;;;;;;12485252;28;20049;-37
2023/04/01 09:43:02;;;;;;;2.75;0.82;;;9.90;99.90;;;;;;12514685;28;20056;-37
2023/04/01 09:49:30;;;;;;;1.10;0.50;;;10.30;99.90;;;;;;12507607;28;20052;-38
2023/04/01 09:55:47;;;;;;;0.95;0.65;;;10.50;99.90;;;;;;12518392;28;20075;-38
2023/04/01 10:02:33;;;;;;;1.50;0.80;;;10.80;99.90;;;;;;12514781;28;20126;-37
2023/04/01 10:08:51;;;;;;;2.13;0.52;;;10.80;99.90;;;;;;12492088;28;20056;-37
2023/04/01 10:15:24;;;;;;;1.45;0.40;;;10.90;99.90;;;;;;12515059;28;20416;-37
2023/04/01 10:22:04;;;;;;;1.55;0.70;;;10.90;99.90;;;;;;12507644;28;20049;-37
2023/04/01 10:28:14;;;;;;;2.65;0.60;;;11.00;99.90;;;;;;12517782;28;20045;-37
2023/04/01 10:34:28;;;;;;;1.10;0.63;;;11.00;99.90;;;;;;12507663;28;20053;-37
2023/04/01 10:40:57;;;;;;;2.07;0.80;;;11.00;99.90;;;;;;12501396;28;20528;-37
2023/04/01 10:47:28;;;;;;;1.55;0.60;;;11.30;99.90;;;;;;12503636;28;20060;-37
2023/04/01 10:54:03;;;;;;;1.67;0.73;;;11.70;99.90;;;;;;12510416;28;21642;-38
2023/04/01 11:00:29;;;;;;;0.95;0.50;;;11.90;99.90;;;;;;12493725;28;20053;-37
2023/04/01 11:07:10;;;;;;;1.45;0.60;;;12.10;99.90;;;;;;12493456;28;20067;-37
2023/04/01 11:13:33;;;;;;;0.95;0.52;;;12.00;99.90;;;;;;12491578;28;20040;-37
2023/04/01 11:19:52;;;;;;;1.15;0.60;;;11.70;99.90;;;;;;12511157;28;20486;-37
2023/04/01 11:26:07;;;;;;;0.95;0.40;;;11.70;99.90;;;;;;12495673;28;20048;-37
2023/04/01 11:32:48;;;;;;;0.63;0.30;;;11.60;99.90;;;;;;12509923;28;20049;-37
2023/04/01 11:39:10;;;;;;;1.75;0.20;;;11.50;99.90;;;;;;12513648;28;20377;-37
2023/04/01 11:45:38;;;;;;;0.38;0.20;;;11.60;99.90;;;;;;12504513;28;20049;-37
2023/04/01 11:52:18;;;;;;;0.40;0.20;;;11.70;99.90;;;;;;12520354;28;20098;-37
2023/04/01 11:58:23;;;;;;;0.30;0.20;;;11.70;99.90;;;;;;12503820;28;20454;-38
2023/04/01 12:04:30;;;;;;;0.25;0.22;;;11.70;99.90;;;;;;12504125;28;20080;-38
2023/04/01 12:11:15;;;;;;;2.38;0.40;;;11.90;99.90;;;;;;12507001;28;20603;-37
2023/04/01 12:17:54;;;;;;;1.17;0.30;;;12.00;99.90;;;;;;12528003;28;20052;-37
2023/04/01 12:24:11;;;;;;;0.17;0.15;;;12.20;99.90;;;;;;12515616;28;20481;-37
2023/04/01 12:30:39;;;;;;;0.68;0.20;;;12.10;99.90;;;;;;12498735;28;20060;-37
2023/04/01 12:37:03;;;;;;;2.95;0.60;;;12.00;99.90;;;;;;12502666;28;20382;-37
2023/04/01 12:43:17;;;;;;;;;;;11.70;99.90;;;;;;12480454;28;20037;-37
2023/04/01 12:50:03;;;;;;;1.37;0.33;;;11.40;99.90;;;;;;12508882;28;20296;-38
2023/04/01 12:56:16;;;;;;;1.30;0.60;;;11.30;99.90;;;;;;12520123;28;20044;-38
2023/04/01 13:02:49;;;;;;;1.42;0.80;;;11.20;99.90;;;;;;12496630;28;20054;-37
2023/04/01 13:09:01;;;;;;;2.55;0.70;;;10.90;99.90;;;;;;12510123;28;20046;-37
2023/04/01 13:15:28;;;;;;;1.23;0.73;;;11.10;99.90;;;;;;12518867;28;20164;-37
2023/04/01 13:21:46;;;;;;;1.27;0.90;;;11.00;99.90;;;;;;12491014;28;20200;-37
2023/04/01 13:27:56;;;;;;;2.47;0.60;;;11.10;99.90;;;;;;12511923;28;20064;-37
2023/04/01 13:34:16;;;;;;;2.70;0.52;;;11.00;99.90;;;;;;12507274;28;20045;-37
2023/04/01 13:40:50;;;;;;;0.68;0.35;;;10.80;99.90;;;;;;12511257;28;20053;-37
2023/04/01 13:47:16;;;;;;;2.60;0.40;;;10.90;99.90;;;;;;12489335;28;20048;-37
2023/04/01 13:53:59;;;;;;;1.50;0.50;;;11.10;99.90;;;;;;12494367;28;20539;-37
2023/04/01 14:00:07;;;;;;;2.20;0.55;;;11.20;99.90;;;;;;12493972;28;20466;-38
2023/04/01 14:06:40;;;;;;;1.20;0.70;;;11.30;99.90;;;;;;12484352;28;20386;-37
2023/04/01 14:12:56;;;;;;;2.95;0.60;;;11.40;99.90;;;;;;12503762;28;20044;-38
2023/04/01 14:19:29;;;;;;;2.63;0.60;;;11.40;99.90;;;;;;12490210;28;20083;-39
2023/04/01 14:26:10;;;;;;;1.00;0.65;;;11.30;99.90;;;;;;12488399;28;20045;-38
2023/04/01 14:32:39;;;;;;;0.63;0.40;;;11.30;99.90;;;;;;12494732;28;20078;-37
2023/04/01 14:39:12;;;;;;;0.70;0.40;;;11.30;99.90;;;;;;12507590;28;20060;-37
2023/04/01 14:45:54;;;;;;;0.80;0.50;;;11.20;99.90;;;;;;12510167;28;20053;-37
2023/04/01 14:52:14;;;;;;;1.63;0.60;;;11.00;99.90;;;;;;12516697;28;20038;-37
2023/04/01 14:58:19;;;;;;;1.38;0.60;;;11.00;99.90;;;;;;12507262;28;20473;-36
2023/04/01 15:04:56;;;;;;;1.50;0.60;;;10.90;99.90;;;;;;12506356;28;20095;-37
2023/04/01 15:11:15;;;;;;;2.42;0.90;;;10.90;99.90;;;;;;12512282;28;20052;-36
2023/04/01 15:17:23;;;;;;;2.53;0.40;;;10.80;99.90;;;;;;12521607;28;20092;-36
2023/04/01 15:23:28;;;;;;;1.75;0.60;;;10.80;99.90;;;;;;12491639;28;20041;-37
2023/04/01 15:29:32;;;;;;;2.30;0.60;;;10.80;99.90;;;;;;12507851;28;20488;-37
2023/04/01 15:35:46;;;;;;;1.15;0.40;;;10.90;99.90;;;;;;12497506;28;20556;-37
2023/04/01 15:42:12;;;;;;;2.30;0.40;;;11.00;99.90;;;;;;12507221;28;20060;-37
2023/04/01 15:48:48;;;;;;;1.00;0.50;;;10.80;99.90;;;;;;12503947;28;20576;-36
2023/04/01 15:55:06;;;;;;;2.28;0.80;;;10.70;99.90;;;;;;12497899;28;20049;-36
2023/04/01 16:01:26;;;;;;;1.50;1.00;;;10.50;99.90;;;;;;12515912;28;20041;-37
2023/04/01 16:08:03;;;;;;;2.08;1.63;;;10.20;99.90;;;;;;12516238;28;20045;-37
2023/04/01 16:14:24;;;;;;;2.70;1.77;;;9.90;99.90;;;;;;12503001;28;20048;-36
2023/04/01 16:20:45;;;;;;;8.57;1.98;;;9.60;99.90;;;;;;12507634;28;20046;-37
2023/04/01 16:27:17;;;;;;;3.20;2.53;;;9.40;99.90;;;;;;12507599;28;20061;-37
2023/04/01 16:33:34;;;;;;;2.28;1.60;;;9.10;99.90;;;;;;12511505;28;20049;-36
2023/04/01 16:39:50;;;;;;;2.83;1.75;;;8.90;99.90;;;;;;12510081;28;20045;-36
2023/04/01 16:45:54;;;;;;;2.15;1.75;;;8.90;99.90;;;;;;12508550;28;20439;-36
2023/04/01 16:52:02;;;;;;;2.95;2.00;;;8.70;99.90;;;;;;12509260;28;20046;-37
2023/04/01 16:58:08;;;;;;;2.40;1.80;;;8.60;99.90;;;;;;12499383;28;20549;-37
2023/04/01 17:04:39;;;;;;;3.45;2.08;;;8.50;99.90;;;;;;12500092;28;20053;-37
2023/04/01 17:11:12;;;;;;;2.92;2.03;;;8.50;99.90;;;;;;12492994;28;20052;-36
2023/04/01 17:17:21;;;;;;;3.05;1.95;;;8.30;99.90;;;;;;12517477;28;20053;-36
2023/04/01 17:23:43;;;;;;;3.45;1.70;;;8.30;99.90;;;;;;12498405;28;20469;-36
2023/04/01 17:30:17;;;;;;;2.33;1.60;;;8.20;99.90;;;;;;12511568;28;20041;-36
2023/04/01 17:36:53;;;;;;;2.08;1.13;;;8.10;99.90;;;;;;12492237;28;20049;-37
2023/04/01 17:43:07;;;;;;;2.08;1.30;;;7.90;99.90;;;;;;12499598;28;20037;-37
2023/04/01 17:49:38;;;;;;;2.92;1.50;;;7.90;99.90;;;;;;12483800;28;20045;-36
2023/04/01 17:56:07;;;;;;;3.47;1.15;;;7.80;99.90;;;;;;12499941;28;20041;-36
2023/04/01 18:02:45;;;;;;;2.33;1.20;;;7.60;99.90;;;;;;12507918;28;20041;-36
2023/04/01 18:09:18;;;;;;;1.77;1.10;;;7.60;99.90;;;;;;12497358;28;20052;-36
2023/04/01 18:15:45;;;;;;;2.45;1.33;;;7.50;99.90;;;;;;12505291;28;20052;-36
2023/04/01 18:22:10;;;;;;;2.35;1.00;;;7.30;99.90;;;;;;12513412;28;20511;-36
2023/04/01 18:28:30;;;;;;;2.15;1.20;;;7.20;99.90;;;;;;12507170;28;20053;-37
2023/04/01 18:34:38;;;;;;;3.50;1.70;;;7.20;99.90;;;;;;12489525;28;20460;-36
2023/04/01 18:40:49;;;;;;;3.25;1.83;;;7.10;99.90;;;;;;12501305;28;20053;-36
2023/04/01 18:47:30;;;;;;;3.20;2.42;;;6.90;99.90;;;;;;12496487;28;20045;-36
2023/04/01 18:53:42;;;;;;;2.25;1.77;;;6.80;99.90;;;;;;12488665;28;20060;-36
2023/04/01 19:00:04;;;;;;;2.17;1.70;;;6.60;99.90;;;;;;12501819;28;20041;-36
2023/04/01 19:06:44;;;;;;;2.63;1.73;;;6.60;99.90;;;;;;12503583;28;20048;-37
2023/04/01 19:13:04;;;;;;;2.25;1.55;;;6.50;99.90;;;;;;12502400;28;20171;-36
2023/04/01 19:19:23;;;;;;;2.80;1.75;;;6.50;99.90;;;;;;12505349;28;20071;-36
2023/04/01 19:25:42;;;;;;;2.45;1.52;;;6.40;99.90;;;;;;12488693;28;20378;-36
2023/04/01 19:31:53;;;;;;;2.10;1.20;;;6.20;99.90;;;;;;12505316;28;20046;-37
2023/04/01 19:38:14;;;;;;;1.20;0.90;;;6.20;99.90;;;;;;12512900;28;20124;-37
2023/04/01 19:44:26;;;;;;;2.30;1.40;;;6.20;99.90;;;;;;12513703;28;20045;-37
2023/04/01 19:50:59;;;;;;;2.78;1.80;;;6.20;99.90;;;;;;12523657;28;20053;-37
2023/04/01 19:57:43;;;;;;;2.50;1.67;;;6.20;99.90;;;;;;12514765;28;20068;-37
2023/04/01 20:04:12;;;;;;;3.58;1.70;;;6.20;99.90;;;;;;12511428;28;20045;-36
2023/04/01 20:10:34;;;;;;;3.60;1.80;;;6.10;99.90;;;;;;12498969;28;20104;-37
2023/04/01 20:16:52;;;;;;;3.17;1.60;;;6.00;99.90;;;;;;12509559;28;20049;-37
2023/04/01 20:23:30;;;;;;;3.13;1.63;;;6.00;99.90;;;;;;12517899;28;20077;-36
2023/04/01 20:29:56;;;;;;;3.60;1.30;;;5.90;99.90;;;;;;12498300;28;20061;-37
2023/04/01 20:36:41;;;;;;;1.58;1.17;;;5.80;99.90;;;;;;12503895;28;20186;-36
2023/04/01 20:42:55;;;;;;;4.67;1.70;;;5.80;99.90;;;;;;12502027;28;20060;-37
2023/04/01 20:49:25;;;;;;;3.07;2.10;;;5.80;99.90;;;;;;12518685;28;20069;-36
2023/04/01 20:55:55;;;;;;;3.00;1.75;;;5.80;99.90;;;;;;12522244;28;20044;-36
2023/04/01 21:02:36;;;;;;;2.53;1.70;;;5.60;99.90;;;;;;12515371;28;20045;-36
2023/04/01 21:08:59;;;;;;;2.70;1.38;;;5.50;99.90;;;;;;12494323;28;20045;-36
2023/04/01 21:15:10;;;;;;;2.65;1.50;;;5.30;99.90;;;;;;12500574;28;20095;-36
2023/04/01 21:21:20;;;;;;;2.28;1.48;;;5.30;99.90;;;;;;12500987;28;20593;-36
2023/04/01 21:27:55;;;;;;;5.03;1.67;;;5.30;99.90;;;;;;12501602;28;20063;-36
2023/04/01 21:34:13;;;;;;;4.30;1.88;;;5.30;99.90;;;;;;12504034;28;20036;-36
2023/04/01 21:40:32;;;;;;;3.97;1.67;;;5.20;99.90;;;;;;12498746;28;20076;-37
2023/04/01 21:47:01;;;;;;;2.65;1.52;;;5.10;99.90;;;;;;12499675;28;20087;-37
2023/04/01 21:53:37;;;;;;;3.60;1.83;;;5.10;99.90;;;;;;12515136;28;20532;-36
2023/04/01 22:00:12;;;;;;;3.28;2.00;;;5.10;99.90;;;;;;12505510;28;20136;-36
2023/04/01 22:06:30;;;;;;;3.90;2.00;;;4.90;99.90;;;;;;12485029;28;20095;-36
2023/04/01 22:12:46;;;;;;;3.45;1.75;;;4.80;99.90;;;;;;12519554;28;20394;-36
2023/04/01 22:19:09;;;;;;;2.42;1.50;;;4.80;99.90;;;;;;12494389;28;20636;-36
2023/04/01 22:25:17;;;;;;;3.05;1.60;;;4.80;99.90;;;;;;12492474;28;20176;-36
2023/04/01 22:31:31;;;;;;;5.38;1.63;;;4.70;99.90;;;;;;12486352;28;20053;-36
2023/04/01 22:37:52;;;;;;;3.08;1.52;;;4.80;99.90;;;;;;12488290;28;20745;-36
2023/04/01 22:43:57;;;;;;;2.55;1.65;;;4.70;99.90;;;;;;12507897;28;20474;-36
2023/04/01 22:50:18;;;;;;;4.07;2.13;;;4.70;99.90;;;;;;12500728;28;20082;-36
2023/04/01 22:56:36;;;;;;;3.92;2.25;;;4.60;99.90;;;;;;12510896;28;20061;-36
2023/04/01 23:03:16;;;;;;;5.32;2.42;;;4.40;99.90;;;;;;12513070;28;20138;-36
2023/04/01 23:09:23;;;;;;;3.53;2.40;;;4.40;99.90;;;;;;12513498;28;20809;-36
2023/04/01 23:15:26;;;;;;;4.82;2.40;;;4.40;99.90;;;;;;12513630;28;20053;-36
2023/04/01 23:21:44;;;;;;;4.32;2.30;;;4.20;99.90;;;;;;12525564;28;20148;-36
2023/04/01 23:28:04;;;;;;;4.47;2.17;;;4.30;99.90;;;;;;12513558;28;20053;-36
2023/04/01 23:34:12;;;;;;;4.13;2.22;;;4.30;99.90;;;;;;12500905;28;20152;-36
2023/04/01 23:40:15;;;;;;;4.22;1.95;;;4.30;99.90;;;;;;12510537;28;20045;-36
2023/04/01 23:46:16;;;;;;;5.57;1.80;;;4.20;99.90;;;;;;12500832;28;20057;-36
2023/04/01 23:52:25;;;;;;;3.75;2.10;;;4.20;99.90;;;;;;12517644;28;20052;-36
2023/04/01 23:58:46;;;;;;;4.30;1.80;;;4.20;99.90;;;;;;12513784;28;20191;-36
